Time;durP1;ratioP1;P1;durP2;ratioP2;P2;SDS_P1;SDS_P2;PMS_P1;PMS_P2;Temp;Humidity;BMP_temperature;BMP_pressure;BME280_temperature;BME280_humidity;BME280_pressure;Samples;Min_cycle;Max_cycle;Signal;HPM_P1;HPM_P2
2022/12/20 00:01:35;;;;;;;;;;;;;;;17.46;41.19;101156.03;5130468;28;19923;-58
2022/12/20 00:04:02;;;;;;;;;;;;;;;17.47;41.20;101150.25;5130945;28;19943;-58
2022/12/20 00:06:28;;;;;;;;;;;;;;;17.48;41.32;101156.56;5111165;28;20325;-58
2022/12/20 00:08:54;;;;;;;;;;;;;;;17.46;41.34;101148.59;5130171;28;20391;-58
2022/12/20 00:11:20;;;;;;;;;;;;;;;17.46;41.07;101145.84;5112273;28;19980;-58
2022/12/20 00:13:45;;;;;;;;;;;;;;;17.45;41.26;101141.44;5112270;28;19928;-58
2022/12/20 00:16:12;;;;;;;;;;;;;;;17.47;41.13;101146.66;5129776;28;20355;-58
2022/12/20 00:18:38;;;;;;;;;;;;;;;17.47;41.19;101144.72;5111560;28;19975;-58
2022/12/20 00:21:05;;;;;;;;;;;;;;;17.46;41.25;101153.28;5130809;28;20411;-58
2022/12/20 00:23:30;;;;;;;;;;;;;;;17.46;41.34;101147.75;5111032;28;20366;-58
2022/12/20 00:25:59;;;;;;;;;;;;;;;17.45;41.40;101144.19;5128989;28;20434;-59
2022/12/20 00:28:24;;;;;;;;;;;;;;;17.45;41.21;101143.34;5129326;28;19963;-58
2022/12/20 00:30:54;;;;;;;;;;;;;;;17.47;41.24;101141.16;5130283;28;20039;-58
2022/12/20 00:33:19;;;;;;;;;;;;;;;17.45;41.26;101146.94;5130621;27;19959;-58
2022/12/20 00:35:45;;;;;;;;;;;;;;;17.45;41.32;101141.44;5129874;28;19930;-58
2022/12/20 00:38:10;;;;;;;;;;;;;;;17.45;41.24;101143.34;5110927;28;20260;-55
2022/12/20 00:40:36;;;;;;;;;;;;;;;17.46;41.04;101139.50;5129487;28;19930;-58
2022/12/20 00:43:01;;;;;;;;;;;;;;;17.45;41.22;101135.09;5135240;27;19923;-58
2022/12/20 00:45:27;;;;;;;;;;;;;;;17.44;41.19;101142.53;5150141;27;19945;-58
2022/12/20 00:47:52;;;;;;;;;;;;;;;17.45;41.48;101135.09;5149663;27;20324;-58
2022/12/20 00:50:18;;;;;;;;;;;;;;;17.44;41.25;101139.78;5130039;28;19924;-58
2022/12/20 00:52:43;;;;;;;;;;;;;;;17.44;41.23;101137.03;5129971;28;20402;-58
2022/12/20 00:55:09;;;;;;;;;;;;;;;17.45;41.39;101135.94;5129293;28;20145;-58
2022/12/20 00:57:35;;;;;;;;;;;;;;;17.45;41.21;101124.09;5129356;28;19937;-58
2022/12/20 01:00:00;;;;;;;;;;;;;;;17.45;41.25;101121.34;5128589;28;19927;-58
2022/12/20 01:02:26;;;;;;;;;;;;;;;17.44;41.21;101126.00;5129918;28;19930;-58
2022/12/20 01:04:52;;;;;;;;;;;;;;;17.44;41.26;101120.50;5129545;28;19923;-58
2022/12/20 01:07:19;;;;;;;;;;;;;;;17.44;41.25;101116.91;5129140;28;19924;-58
2022/12/20 01:09:44;;;;;;;;;;;;;;;17.45;41.22;101105.63;5129300;28;20264;-57
2022/12/20 01:12:10;;;;;;;;;;;;;;;17.45;41.18;101107.56;5130068;28;19976;-58
2022/12/20 01:14:36;;;;;;;;;;;;;;;17.44;41.26;101112.25;5128878;28;20045;-58
2022/12/20 01:17:01;;;;;;;;;;;;;;;17.44;41.24;101103.13;5111091;28;20015;-58
2022/12/20 01:19:27;;;;;;;;;;;;;;;17.45;41.23;101110.31;5128916;28;19924;-58
2022/12/20 01:21:52;;;;;;;;;;;;;;;17.44;41.25;101109.50;5129715;28;20279;-58
2022/12/20 01:24:19;;;;;;;;;;;;;;;17.44;41.44;101100.38;5128863;28;19935;-58
2022/12/20 01:26:44;;;;;;;;;;;;;;;17.44;41.45;101119.66;5129032;28;19988;-58
2022/12/20 01:29:10;;;;;;;;;;;;;;;17.44;41.22;101116.91;5128622;28;20336;-58
2022/12/20 01:31:35;;;;;;;;;;;;;;;17.45;41.21;101113.06;5129134;28;19992;-58
2022/12/20 01:34:01;;;;;;;;;;;;;;;17.42;41.37;101111.66;5128998;28;19928;-58
2022/12/20 01:36:28;;;;;;;;;;;;;;;17.44;41.49;101119.66;5110380;28;19930;-58
2022/12/20 01:38:55;;;;;;;;;;;;;;;17.43;41.33;101121.56;5129012;28;19948;-58
2022/12/20 01:41:21;;;;;;;;;;;;;;;17.44;41.47;101119.66;5111108;28;19970;-57
2022/12/20 01:46:23;;;;;;;;;;;;;;;17.45;41.42;101113.06;5187820;27;19925;-56
2022/12/20 01:49:09;;;;;;;;;;;;;;;17.44;41.25;101114.13;5188262;27;19974;-54
2022/12/20 01:51:36;;;;;;;;;;;;;;;17.44;41.34;101117.75;5172476;27;19922;-55
2022/12/20 01:54:04;;;;;;;;;;;;;;;17.43;41.26;101118.00;5169419;27;20353;-55
2022/12/20 01:56:29;;;;;;;;;;;;;;;17.42;41.34;101114.41;5169072;27;20120;-56
2022/12/20 01:58:55;;;;;;;;;;;;;;;17.42;41.35;101103.41;5187180;27;20282;-55
2022/12/20 02:01:21;;;;;;;;;;;;;;;17.43;41.45;101107.81;5188408;27;19926;-55
2022/12/20 02:03:47;;;;;;;;;;;;;;;17.43;41.35;101101.47;5171661;27;19984;-55
2022/12/20 02:06:18;;;;;;;;;;;;;;;17.44;41.34;101100.38;5166530;27;19931;-55
2022/12/20 02:08:44;;;;;;;;;;;;;;;17.44;41.28;101097.63;5166817;27;19923;-55
2022/12/20 02:11:15;;;;;;;;;;;;;;;17.43;41.33;101090.47;5167670;27;19933;-56
2022/12/20 02:13:44;;;;;;;;;;;;;;;17.42;41.37;101092.38;5160304;27;20387;-55
2022/12/20 02:16:10;;;;;;;;;;;;;;;17.44;41.33;101092.97;5126924;27;19977;-55
2022/12/20 02:18:46;;;;;;;;;;;;;;;17.43;41.38;101087.72;5149898;27;19927;-56
2022/12/20 02:21:13;;;;;;;;;;;;;;;17.43;41.36;101087.72;5132597;27;19923;-55
2022/12/20 02:23:51;;;;;;;;;;;;;;;17.44;41.38;101078.34;5127835;27;19963;-56
2022/12/20 02:26:22;;;;;;;;;;;;;;;17.43;41.30;101087.72;5145178;27;19979;-56
2022/12/20 02:28:54;;;;;;;;;;;;;;;17.43;41.51;101083.03;5150506;27;20299;-55
2022/12/20 02:31:23;;;;;;;;;;;;;;;17.42;41.38;101084.13;5163152;27;19923;-55
2022/12/20 02:33:49;;;;;;;;;;;;;;;17.42;41.26;101078.63;5145647;27;20010;-55
2022/12/20 02:36:16;;;;;;;;;;;;;;;17.43;41.36;101076.69;5144854;27;19929;-56
2022/12/20 02:38:42;;;;;;;;;;;;;;;17.42;41.44;101081.38;5130125;27;19962;-55
2022/12/20 02:41:13;;;;;;;;;;;;;;;17.42;41.32;101084.13;5151421;27;19930;-55
2022/12/20 02:46:25;;;;;;;;;;;;;;;17.42;41.34;101097.91;5129750;27;19978;-56
2022/12/20 02:48:51;;;;;;;;;;;;;;;17.43;41.27;101098.72;5150634;27;19927;-56
2022/12/20 02:51:17;;;;;;;;;;;;;;;17.43;41.24;101095.97;5131501;27;20197;-56
2022/12/20 02:53:42;;;;;;;;;;;;;;;17.43;41.34;101102.31;5127049;27;19948;-55
2022/12/20 02:56:11;;;;;;;;;;;;;;;17.44;41.31;101103.13;5140292;27;19924;-56
2022/12/20 02:58:37;;;;;;;;;;;;;;;17.42;41.41;101092.38;5133256;27;19939;-55
2022/12/20 03:01:05;;;;;;;;;;;;;;;17.41;41.27;101093.50;5149741;27;19931;-56
2022/12/20 03:03:31;;;;;;;;;;;;;;;17.43;41.45;101098.72;5114555;28;19927;-56
2022/12/20 03:05:57;;;;;;;;;;;;;;;17.42;41.32;101092.38;5130910;28;20030;-55
2022/12/20 03:08:23;;;;;;;;;;;;;;;17.43;41.52;101087.72;5131638;27;20045;-56
2022/12/20 03:10:48;;;;;;;;;;;;;;;17.43;41.52;101098.72;5122258;28;19923;-55
2022/12/20 03:13:14;;;;;;;;;;;;;;;17.42;41.43;101092.38;5136486;27;20291;-56
2022/12/20 03:15:39;;;;;;;;;;;;;;;17.43;41.52;101093.22;5172281;27;19927;-55
2022/12/20 03:18:05;;;;;;;;;;;;;;;17.42;41.34;101097.91;5173086;27;20362;-55
2022/12/20 03:20:31;;;;;;;;;;;;;;;17.42;41.46;101083.31;5144272;27;20381;-56
2022/12/20 03:22:56;;;;;;;;;;;;;;;17.41;41.43;101079.72;5131610;27;20117;-56
2022/12/20 03:25:22;;;;;;;;;;;;;;;17.42;41.37;101086.06;5130603;28;19923;-55
2022/12/20 03:27:47;;;;;;;;;;;;;;;17.42;41.35;101089.63;5131326;28;19923;-54
2022/12/20 03:30:13;;;;;;;;;;;;;;;17.43;41.44;101090.47;5146132;27;19927;-55
2022/12/20 03:32:39;;;;;;;;;;;;;;;17.42;41.44;101084.13;5152196;27;19923;-55
2022/12/20 03:35:04;;;;;;;;;;;;;;;17.41;41.61;101082.47;5150960;27;20165;-56
2022/12/20 03:37:30;;;;;;;;;;;;;;;17.42;41.37;101086.06;5151850;27;19938;-55
2022/12/20 03:39:55;;;;;;;;;;;;;;;17.41;41.62;101085.22;5132859;27;20388;-56
2022/12/20 03:42:21;;;;;;;;;;;;;;;17.41;41.37;101081.66;5152037;27;19927;-55
2022/12/20 03:44:46;;;;;;;;;;;;;;;17.42;41.51;101086.06;5132424;27;19927;-56
2022/12/20 03:47:12;;;;;;;;;;;;;;;17.41;41.61;101090.75;5151351;27;19972;-56
2022/12/20 03:49:38;;;;;;;;;;;;;;;17.41;41.47;101087.97;5132406;27;19923;-56
2022/12/20 03:52:03;;;;;;;;;;;;;;;17.41;41.46;101096.25;5152204;27;20276;-56
2022/12/20 03:54:29;;;;;;;;;;;;;;;17.41;41.56;101099.00;5151164;27;19927;-56
2022/12/20 03:56:54;;;;;;;;;;;;;;;17.41;41.54;101096.25;5151246;27;19923;-56
2022/12/20 03:59:20;;;;;;;;;;;;;;;17.41;41.46;101090.75;5150958;27;20171;-54
2022/12/20 04:01:45;;;;;;;;;;;;;;;17.41;41.56;101084.41;5148960;27;19923;-55
2022/12/20 04:04:12;;;;;;;;;;;;;;;17.41;41.47;101079.72;5150818;27;19941;-55
2022/12/20 04:06:38;;;;;;;;;;;;;;;17.40;41.44;101080.81;5132048;27;19923;-55
2022/12/20 04:09:03;;;;;;;;;;;;;;;17.40;41.63;101077.22;5149672;27;19927;-55
2022/12/20 04:11:29;;;;;;;;;;;;;;;17.41;41.30;101087.97;5151496;27;19930;-55
2022/12/20 04:13:55;;;;;;;;;;;;;;;17.41;41.57;101076.16;5148720;27;19984;-55
2022/12/20 04:16:21;;;;;;;;;;;;;;;17.40;41.48;101083.59;5170857;27;19923;-55
2022/12/20 04:18:47;;;;;;;;;;;;;;;17.41;41.51;101085.22;5170162;27;19926;-56
2022/12/20 04:21:12;;;;;;;;;;;;;;;17.41;41.62;101089.91;5135876;27;19930;-56
2022/12/20 04:23:38;;;;;;;;;;;;;;;17.41;41.42;101078.91;5130672;28;19946;-56
2022/12/20 04:26:05;;;;;;;;;;;;;;;17.41;41.46;101078.91;5110872;28;19962;-56
2022/12/20 04:28:30;;;;;;;;;;;;;;;17.40;41.61;101074.47;5128871;28;20343;-54
2022/12/20 04:30:56;;;;;;;;;;;;;;;17.40;41.51;101069.81;5146733;27;19927;-55
2022/12/20 04:33:22;;;;;;;;;;;;;;;17.39;41.65;101076.38;5114249;28;20213;-55
2022/12/20 04:35:47;;;;;;;;;;;;;;;17.41;41.38;101071.47;5129736;28;20007;-55
2022/12/20 04:38:13;;;;;;;;;;;;;;;17.41;41.50;101070.63;5111764;28;19971;-55
2022/12/20 04:40:39;;;;;;;;;;;;;;;17.40;41.31;101072.56;5117192;28;19966;-56
2022/12/20 04:43:04;;;;;;;;;;;;;;;17.40;41.47;101071.72;5130248;27;19923;-56
2022/12/20 04:45:30;;;;;;;;;;;;;;;17.41;41.42;101076.97;5129161;28;20396;-56
2022/12/20 04:47:55;;;;;;;;;;;;;;;17.41;41.46;101076.16;5129957;28;19946;-56
2022/12/20 04:50:21;;;;;;;;;;;;;;;17.40;41.51;101067.06;5135310;27;19927;-55
2022/12/20 04:55:36;;;;;;;;;;;;;;;17.40;41.35;101044.19;5113942;28;19978;-55
2022/12/20 04:58:01;;;;;;;;;;;;;;;17.39;41.49;101046.09;5111618;28;19992;-55
2022/12/20 05:00:33;;;;;;;;;;;;;;;17.39;41.50;101046.09;5142214;27;20328;-55
2022/12/20 05:02:58;;;;;;;;;;;;;;;17.40;41.47;101052.44;5135556;27;19980;-56
2022/12/20 05:05:24;;;;;;;;;;;;;;;17.40;41.40;101049.69;5128610;28;19953;-55
2022/12/20 05:07:50;;;;;;;;;;;;;;;17.40;41.30;101034.03;5129667;28;19923;-56
2022/12/20 05:10:16;;;;;;;;;;;;;;;17.40;41.47;101041.44;5118718;27;20010;-56
2022/12/20 05:12:41;;;;;;;;;;;;;;;17.40;41.48;101028.53;5140727;27;19954;-55
2022/12/20 05:15:07;;;;;;;;;;;;;;;17.39;41.46;101024.09;5170455;27;19937;-56
2022/12/20 05:17:33;;;;;;;;;;;;;;;17.39;41.58;101018.56;5171034;27;19922;-55
2022/12/20 05:19:58;;;;;;;;;;;;;;;17.39;41.43;101013.06;5141738;27;20022;-55
2022/12/20 05:27:55;;;;;;;;;;;;;;;17.40;41.67;101008.38;5134125;27;20286;-55
2022/12/20 05:30:21;;;;;;;;;;;;;;;17.40;41.51;101008.38;5146370;27;19923;-55
2022/12/20 05:32:46;;;;;;;;;;;;;;;17.40;41.48;101016.66;5120064;27;19931;-56
2022/12/20 05:35:12;;;;;;;;;;;;;;;17.45;41.54;101014.78;5143962;27;19942;-55
2022/12/20 05:37:37;;;;;;;;;;;;;;;17.43;41.58;101010.63;5146598;27;20287;-56
2022/12/20 05:40:03;;;;;;;;;;;;;;;17.42;41.71;101001.53;5147284;27;19935;-56
2022/12/20 05:42:29;;;;;;;;;;;;;;;17.41;41.48;100996.31;5143502;27;20385;-55
2022/12/20 05:44:54;;;;;;;;;;;;;;;17.41;41.56;101005.38;5148811;27;19923;-56
2022/12/20 05:47:20;;;;;;;;;;;;;;;17.41;41.55;101004.56;5144430;27;19927;-55
2022/12/20 05:49:46;;;;;;;;;;;;;;;17.41;41.71;101001.81;5145298;27;19923;-55
2022/12/20 05:52:11;;;;;;;;;;;;;;;17.41;41.60;100983.38;5143626;27;20190;-55
2022/12/20 05:54:37;;;;;;;;;;;;;;;17.40;41.69;100987.22;5149210;27;19934;-56
2022/12/20 05:57:02;;;;;;;;;;;;;;;17.41;41.50;100982.53;5148936;27;20287;-55
2022/12/20 05:59:28;;;;;;;;;;;;;;;17.40;41.71;100983.63;5148789;27;19947;-55
2022/12/20 06:01:53;;;;;;;;;;;;;;;17.40;41.52;100987.22;5149889;27;19924;-56
2022/12/20 06:04:19;;;;;;;;;;;;;;;17.47;41.86;100981.47;5149495;27;19968;-57
2022/12/20 06:06:45;;;;;;;;;;;;;;;17.42;41.64;100979.50;5148732;27;19946;-57
2022/12/20 06:09:11;;;;;;;;;;;;;;;17.43;41.78;100989.41;5130603;27;19965;-56
2022/12/20 06:11:37;;;;;;;;;;;;;;;17.43;41.76;100994.09;5145230;27;20122;-56
2022/12/20 06:14:02;;;;;;;;;;;;;;;17.42;41.58;100995.22;5151345;27;20270;-56
2022/12/20 06:16:28;;;;;;;;;;;;;;;17.41;41.82;100988.06;5169561;27;19923;-56
2022/12/20 06:18:54;;;;;;;;;;;;;;;17.40;41.86;100984.47;5169765;27;19987;-56
2022/12/20 06:21:19;;;;;;;;;;;;;;;17.41;41.70;100982.53;5133985;27;19934;-56
2022/12/20 06:23:45;;;;;;;;;;;;;;;17.40;41.63;100981.72;5142357;27;19930;-57
2022/12/20 06:26:10;;;;;;;;;;;;;;;17.41;41.70;100980.63;5145564;27;19926;-57
2022/12/20 06:28:41;;;;;;;;;;;;;;;17.42;41.79;100986.94;5144904;27;19927;-56
2022/12/20 06:31:07;;;;;;;;;;;;;;;17.40;41.86;100980.88;5148767;27;20497;-57
2022/12/20 06:33:33;;;;;;;;;;;;;;;17.41;41.62;100979.78;5134682;27;20025;-56
2022/12/20 06:35:58;;;;;;;;;;;;;;;17.40;41.76;100969.84;5132776;27;19999;-56
2022/12/20 06:38:24;;;;;;;;;;;;;;;17.41;41.75;100966.03;5152530;27;19923;-56
2022/12/20 06:40:50;;;;;;;;;;;;;;;17.40;41.69;100967.09;5152515;27;19927;-56
2022/12/20 06:43:15;;;;;;;;;;;;;;;17.42;42.21;100951.16;5141226;27;20290;-56
2022/12/20 06:45:41;;;;;;;;;;;;;;;17.45;42.21;100948.69;5117053;27;19923;-57
2022/12/20 06:48:08;;;;;;;;;;;;;;;17.44;42.42;100944.28;5137017;27;19980;-55
2022/12/20 06:50:33;;;;;;;;;;;;;;;17.44;42.16;100940.69;5146889;27;19927;-56
2022/12/20 06:52:59;;;;;;;;;;;;;;;17.43;42.12;100945.38;5150782;27;19926;-56
2022/12/20 06:55:24;;;;;;;;;;;;;;;17.43;42.20;100948.13;5140068;27;19931;-57
2022/12/20 06:57:50;;;;;;;;;;;;;;;17.44;42.23;100948.94;5140853;27;19953;-56
2022/12/20 07:00:16;;;;;;;;;;;;;;;17.43;42.15;100944.53;5140678;27;19927;-56
2022/12/20 07:02:41;;;;;;;;;;;;;;;17.43;42.21;100934.34;5145833;27;19975;-56
2022/12/20 07:05:07;;;;;;;;;;;;;;;17.44;42.04;100937.94;5138150;27;19938;-56
2022/12/20 07:07:32;;;;;;;;;;;;;;;17.43;42.05;100931.59;5142190;27;19923;-56
2022/12/20 07:10:06;;;;;;;;;;;;;;;17.44;42.15;100935.19;5132998;27;19977;-56
2022/12/20 07:12:32;;;;;;;;;;;;;;;17.44;41.98;100932.44;5145596;27;20294;-56
2022/12/20 07:14:58;;;;;;;;;;;;;;;17.44;42.08;100932.44;5137870;27;20409;-57
2022/12/20 07:17:23;;;;;;;;;;;;;;;17.44;42.06;100937.94;5142152;27;19974;-54
2022/12/20 07:19:51;;;;;;;;;;;;;;;17.44;42.06;100930.53;5132476;27;20035;-56
2022/12/20 07:22:16;;;;;;;;;;;;;;;17.45;42.09;100929.44;5141551;27;20212;-56
2022/12/20 07:24:42;;;;;;;;;;;;;;;17.45;42.11;100926.69;5120687;27;20022;-56
2022/12/20 07:27:09;;;;;;;;;;;;;;;17.47;42.00;100931.91;5142086;27;20014;-56
2022/12/20 07:29:35;;;;;;;;;;;;;;;17.46;42.05;100922.81;5141304;27;20556;-56
2022/12/20 07:32:01;;;;;;;;;;;;;;;17.48;41.82;100908.78;5138632;27;20415;-56
2022/12/20 07:34:26;;;;;;;;;;;;;;;17.48;41.93;100911.53;5132724;27;19923;-56
2022/12/20 07:36:52;;;;;;;;;;;;;;;17.59;42.32;100915.16;5144912;27;19947;-60
2022/12/20 07:39:18;;;;;;;;;;;;;;;17.61;43.85;100921.22;5146004;27;19927;-61
2022/12/20 07:41:43;;;;;;;;;;;;;;;17.66;44.24;100913.81;5144930;27;19923;-56
2022/12/20 07:44:09;;;;;;;;;;;;;;;17.65;43.48;100908.56;5119908;27;20026;-56
2022/12/20 07:46:34;;;;;;;;;;;;;;;17.64;43.82;100921.50;5137007;27;19923;-55
2022/12/20 07:49:00;;;;;;;;;;;;;;;17.63;43.79;100921.78;5127255;27;19931;-56
2022/12/20 07:51:27;;;;;;;;;;;;;;;17.61;44.11;100930.28;5134177;27;19931;-56
2022/12/20 07:53:58;;;;;;;;;;;;;;;17.61;43.83;100932.22;5136990;27;20863;-56
2022/12/20 07:56:23;;;;;;;;;;;;;;;17.62;43.89;100933.91;5124052;27;19947;-56
2022/12/20 07:58:49;;;;;;;;;;;;;;;17.61;43.58;100937.72;5129834;27;19968;-56
2022/12/20 08:01:15;;;;;;;;;;;;;;;17.60;43.70;100942.41;5125922;27;19923;-57
2022/12/20 08:03:43;;;;;;;;;;;;;;;17.61;43.42;100937.72;5130090;27;19931;-56
2022/12/20 08:06:08;;;;;;;;;;;;;;;17.64;44.98;100927.00;5118634;27;20223;-56
2022/12/20 08:08:35;;;;;;;;;;;;;;;17.68;43.44;100933.63;5108088;27;20332;-56
2022/12/20 08:11:01;;;;;;;;;;;;;;;17.67;43.36;100931.97;5128911;27;20040;-56
2022/12/20 08:13:26;;;;;;;;;;;;;;;17.67;43.48;100931.16;5129590;27;19980;-56
2022/12/20 08:15:52;;;;;;;;;;;;;;;17.66;43.58;100927.59;5128162;27;20280;-58
2022/12/20 08:18:18;;;;;;;;;;;;;;;17.73;43.94;100925.38;5131277;27;19943;-59
2022/12/20 08:20:43;;;;;;;;;;;;;;;17.71;43.31;100922.09;5122053;27;20533;-58
2022/12/20 08:23:09;;;;;;;;;;;;;;;17.70;43.75;100908.56;5133079;27;20323;-58
2022/12/20 08:25:34;;;;;;;;;;;;;;;17.68;44.09;100910.78;5133727;27;20403;-59
2022/12/20 08:28:06;;;;;;;;;;;;;;;17.67;44.16;100911.88;5136543;27;20035;-58
2022/12/20 08:30:32;;;;;;;;;;;;;;;17.68;43.98;100916.28;5126355;27;19935;-59
2022/12/20 08:32:58;;;;;;;;;;;;;;;17.66;44.08;100902.78;5134089;27;19931;-59
2022/12/20 08:35:23;;;;;;;;;;;;;;;17.67;43.99;100915.47;5132084;27;20527;-59
2022/12/20 08:37:50;;;;;;;;;;;;;;;17.67;43.95;100918.22;5123471;27;19927;-58
2022/12/20 08:40:16;;;;;;;;;;;;;;;17.67;43.97;100922.91;5108636;27;20639;-58
2022/12/20 08:42:41;;;;;;;;;;;;;;;17.67;43.80;100907.19;5126852;27;20482;-59
2022/12/20 08:45:08;;;;;;;;;;;;;;;17.66;43.88;100922.06;5130132;27;19931;-58
2022/12/20 08:47:34;;;;;;;;;;;;;;;17.66;43.72;100926.72;5132198;27;20007;-58
2022/12/20 08:50:00;;;;;;;;;;;;;;;17.67;43.92;100926.47;5123935;27;20483;-59
2022/12/20 08:52:26;;;;;;;;;;;;;;;17.68;43.71;100927.31;5133027;27;19949;-59
2022/12/20 08:54:52;;;;;;;;;;;;;;;17.68;43.74;100924.53;5117051;27;20189;-58
2022/12/20 08:57:18;;;;;;;;;;;;;;;17.68;43.50;100922.63;5134506;27;20009;-59
2022/12/20 08:59:43;;;;;;;;;;;;;;;17.68;43.63;100919.03;5131418;27;19927;-58
2022/12/20 09:02:09;;;;;;;;;;;;;;;17.69;43.59;100917.94;5128564;27;19938;-58
2022/12/20 09:04:35;;;;;;;;;;;;;;;17.69;43.59;100921.50;5127603;27;19927;-59
2022/12/20 09:07:00;;;;;;;;;;;;;;;17.69;43.62;100920.69;5127030;27;19930;-59
2022/12/20 09:09:26;;;;;;;;;;;;;;;17.69;43.50;100915.19;5122267;27;20058;-59
2022/12/20 09:11:51;;;;;;;;;;;;;;;17.70;43.61;100914.06;5124362;27;19931;-59
2022/12/20 09:14:17;;;;;;;;;;;;;;;17.70;43.62;100909.41;5127872;27;19923;-58
2022/12/20 09:16:43;;;;;;;;;;;;;;;17.71;43.48;100913.00;5125408;27;20382;-58
2022/12/20 09:19:10;;;;;;;;;;;;;;;17.70;43.49;100912.19;5133294;27;20212;-58
2022/12/20 09:21:36;;;;;;;;;;;;;;;17.71;43.45;100927.59;5106572;27;20411;-58
2022/12/20 09:24:02;;;;;;;;;;;;;;;17.71;43.33;100921.25;5123618;27;19949;-59
2022/12/20 09:26:27;;;;;;;;;;;;;;;17.71;43.41;100916.56;5135464;27;19927;-59
2022/12/20 09:28:53;;;;;;;;;;;;;;;17.71;43.40;100919.34;5134792;27;19923;-58
2022/12/20 09:31:19;;;;;;;;;;;;;;;17.71;43.33;100924.00;5136283;27;20295;-59
2022/12/20 09:33:45;;;;;;;;;;;;;;;17.71;43.32;100922.09;5116362;27;19927;-59
2022/12/20 09:36:11;;;;;;;;;;;;;;;17.71;43.34;100924.00;5123912;27;20549;-59
2022/12/20 09:38:37;;;;;;;;;;;;;;;17.70;43.27;100928.69;5080840;27;19975;-59
2022/12/20 09:41:03;;;;;;;;;;;;;;;17.70;43.33;100925.09;5124665;27;19931;-59
2022/12/20 09:43:29;;;;;;;;;;;;;;;17.69;43.34;100916.00;5102071;27;20025;-58
2022/12/20 09:45:56;;;;;;;;;;;;;;;17.70;43.40;100912.19;5133351;27;20256;-58
2022/12/20 09:48:23;;;;;;;;;;;;;;;17.69;43.35;100906.91;5110426;27;19927;-59
2022/12/20 09:50:54;;;;;;;;;;;;;;;17.70;43.36;100925.09;5112679;27;19962;-58
2022/12/20 09:53:39;;;;;;;;;;;;;;;17.68;43.20;100928.13;5129460;27;19931;-58
2022/12/20 09:56:09;;;;;;;;;;;;;;;17.69;43.29;100921.50;5113695;27;19931;-59
2022/12/20 09:58:36;;;;;;;;;;;;;;;17.69;43.35;100909.66;5130282;27;20299;-59
2022/12/20 10:01:10;;;;;;;;;;;;;;;17.68;43.22;100917.09;5110323;27;19988;-59
2022/12/20 10:03:40;;;;;;;;;;;;;;;17.67;43.26;100904.44;5135548;27;20536;-59
2022/12/20 10:06:08;;;;;;;;;;;;;;;17.68;43.25;100905.28;5133878;27;19926;-59
2022/12/20 10:08:36;;;;;;;;;;;;;;;17.68;43.39;100905.28;5137823;27;20011;-58
2022/12/20 10:11:07;;;;;;;;;;;;;;;17.68;43.26;100902.50;5114851;27;20160;-59
2022/12/20 10:13:36;;;;;;;;;;;;;;;17.68;43.16;100905.28;5120316;27;19941;-59
2022/12/20 10:16:22;;;;;;;;;;;;;;;17.67;43.19;100903.63;5113500;27;19931;-59
2022/12/20 10:18:53;;;;;;;;;;;;;;;17.65;43.34;100901.13;5117523;27;20356;-59
2022/12/20 10:21:25;;;;;;;;;;;;;;;17.67;43.25;100901.69;5131262;27;19997;-56
2022/12/20 10:24:00;;;;;;;;;;;;;;;17.69;43.21;100893.97;5132180;27;19985;-56
2022/12/20 10:26:26;;;;;;;;;;;;;;;17.80;44.85;100884.66;5110029;27;20351;-58
2022/12/20 10:28:51;;;;;;;;;;;;;;;17.82;44.06;100889.91;5134698;27;20367;-58
2022/12/20 10:31:19;;;;;;;;;;;;;;;17.79;44.95;100885.78;5129902;27;19927;-59
2022/12/20 10:33:45;;;;;;;;;;;;;;;17.87;45.15;100886.31;5121385;27;20000;-59
2022/12/20 10:36:31;;;;;;;;;;;;;;;17.84;44.47;100868.44;5126404;27;20425;-59
2022/12/20 10:38:57;;;;;;;;;;;;;;;17.87;44.33;100883.56;5106686;27;19931;-59
2022/12/20 10:41:25;;;;;;;;;;;;;;;17.84;44.31;100868.44;5117575;27;19935;-58
2022/12/20 10:43:55;;;;;;;;;;;;;;;17.82;44.63;100856.03;5105202;27;20882;-58
2022/12/20 10:46:20;;;;;;;;;;;;;;;17.79;44.92;100854.66;5109840;27;19966;-58
2022/12/20 10:48:47;;;;;;;;;;;;;;;17.79;44.83;100849.16;5128008;27;19969;-59
2022/12/20 10:51:14;;;;;;;;;;;;;;;17.79;44.81;100849.16;5111855;27;20339;-57
2022/12/20 10:53:58;;;;;;;;;;;;;;;17.77;44.65;100843.88;5114601;27;19927;-58
2022/12/20 10:56:26;;;;;;;;;;;;;;;17.79;44.71;100840.88;5111036;27;19970;-58
2022/12/20 10:58:54;;;;;;;;;;;;;;;17.79;44.70;100846.41;5113555;27;19923;-59
2022/12/20 11:01:20;;;;;;;;;;;;;;;17.78;44.53;100842.78;5120361;27;20069;-58
2022/12/20 11:06:29;;;;;;;;;;;;;;;17.80;44.42;100842.53;5150033;27;20230;-56
2022/12/20 11:09:09;;;;;;;;;;;;;;;17.79;44.51;100840.88;5145635;27;20203;-56
2022/12/20 11:11:35;;;;;;;;;;;;;;;17.79;44.31;100830.69;5143481;27;19984;-56
2022/12/20 11:14:12;;;;;;;;;;;;;;;17.80;44.31;100829.59;5145403;27;19930;-56
2022/12/20 11:16:38;;;;;;;;;;;;;;;17.80;44.27;100832.34;5121029;27;20226;-56
2022/12/20 11:19:12;;;;;;;;;;;;;;;17.80;44.34;100829.59;5144385;27;20287;-57
2022/12/20 11:21:41;;;;;;;;;;;;;;;17.81;44.29;100822.13;5139162;27;20374;-56
2022/12/20 11:24:10;;;;;;;;;;;;;;;17.80;44.22;100821.31;5141778;27;20402;-56
2022/12/20 11:26:41;;;;;;;;;;;;;;;17.82;44.05;100821.03;5126490;27;19970;-56
2022/12/20 11:29:26;;;;;;;;;;;;;;;17.82;44.21;100821.03;5142119;27;19923;-56
2022/12/20 11:31:56;;;;;;;;;;;;;;;17.86;44.03;100818.56;5123970;27;19988;-56
2022/12/20 11:34:32;;;;;;;;;;;;;;;17.86;44.38;100822.13;5146944;27;20103;-56
2022/12/20 11:37:03;;;;;;;;;;;;;;;17.86;44.38;100810.28;5128154;27;19951;-56
2022/12/20 11:39:31;;;;;;;;;;;;;;;17.84;44.49;100807.81;5125521;27;19931;-56
2022/12/20 11:42:00;;;;;;;;;;;;;;;17.84;44.42;100794.06;5123960;27;19927;-56
2022/12/20 11:44:45;;;;;;;;;;;;;;;17.85;44.37;100795.69;5143318;27;19942;-57
2022/12/20 11:47:43;;;;;;;;;;;;;;;17.85;44.25;100798.44;5125616;27;19923;-56
2022/12/20 11:50:12;;;;;;;;;;;;;;;17.85;44.30;100787.44;5125631;27;20370;-56
2022/12/20 11:52:40;;;;;;;;;;;;;;;17.86;44.34;100786.31;5139177;27;19934;-56
2022/12/20 11:55:14;;;;;;;;;;;;;;;17.85;44.29;100786.59;5130009;27;20000;-56
2022/12/20 11:57:45;;;;;;;;;;;;;;;17.86;44.19;100788.25;5149693;27;20058;-56
2022/12/20 12:00:31;;;;;;;;;;;;;;;17.86;44.35;100783.56;5128886;27;20398;-56
2022/12/20 12:02:59;;;;;;;;;;;;;;;17.86;44.13;100780.81;5131342;27;19926;-55
2022/12/20 12:05:26;;;;;;;;;;;;;;;17.86;44.12;100789.09;5144586;27;20030;-56
2022/12/20 12:07:55;;;;;;;;;;;;;;;17.86;44.07;100780.81;5146630;27;19931;-56
2022/12/20 12:10:22;;;;;;;;;;;;;;;17.86;44.00;100786.31;5132647;27;20370;-56
2022/12/20 12:13:06;;;;;;;;;;;;;;;17.87;44.13;100787.16;5128712;27;19977;-56
2022/12/20 12:15:47;;;;;;;;;;;;;;;17.87;44.08;100784.38;5146978;27;20610;-56
2022/12/20 12:18:15;;;;;;;;;;;;;;;17.87;44.12;100784.38;5111260;27;20473;-56
2022/12/20 12:20:46;;;;;;;;;;;;;;;17.88;44.06;100786.06;5119892;27;19973;-56
2022/12/20 12:23:15;;;;;;;;;;;;;;;17.88;44.01;100794.34;5137054;27;19969;-55
2022/12/20 12:25:41;;;;;;;;;;;;;;;17.88;44.00;100802.59;5134917;27;19966;-56
2022/12/20 12:28:08;;;;;;;;;;;;;;;17.88;44.08;100792.41;5132349;27;19927;-59
2022/12/20 12:30:35;;;;;;;;;;;;;;;17.88;43.97;100792.41;5115966;27;19927;-59
2022/12/20 12:33:02;;;;;;;;;;;;;;;17.88;43.99;100805.34;5132781;27;19931;-59
2022/12/20 12:35:48;;;;;;;;;;;;;;;17.88;43.93;100788.81;5132954;27;19931;-59
2022/12/20 12:38:17;;;;;;;;;;;;;;;17.88;43.89;100783.31;5116489;27;19924;-58
2022/12/20 12:40:46;;;;;;;;;;;;;;;17.88;43.90;100784.13;5130936;27;19977;-59
2022/12/20 12:43:22;;;;;;;;;;;;;;;17.89;43.96;100771.19;5133872;27;19927;-59
2022/12/20 12:45:51;;;;;;;;;;;;;;;17.88;43.81;100773.13;5125376;27;19966;-59
2022/12/20 12:48:26;;;;;;;;;;;;;;;17.88;43.98;100781.38;5127851;27;19927;-58
2022/12/20 12:50:53;;;;;;;;;;;;;;;17.98;44.39;100781.38;5135439;27;19934;-58
2022/12/20 12:53:20;;;;;;;;;;;;;;;17.96;44.27;100772.56;5120871;27;20405;-58